ロサンゼルス の空港の天気 - METARとTAF

ロサンゼルス国際空港 ( KLAX / LAX ) - アメリカ カリフォルニア州ロサンゼルス
飛行場実況気象(Metar)
観測時間09/22 15:53 PDT (09/22 22:53 UTC)
風向・風速西南西 9m/s 瞬間風速12m/s
視程10km以上
天気現象
少しの雲 雲底高度 2440m
全天の8割程度の雲 雲底高度 4570m
気温23.9℃
湿度54%
気圧1015.3hPa
METARKLAX 222253Z 24018G23KT 10SM FEW080 BKN150 24/14 A2999 RMK AO2 SLP153 T02390139
過去の天気等 Google飛行場航空写真 Wunderground天気予報

過去48時間のMETAR

飛行場予報(TAF)
発表時間: 9/22 14:02 PDT (9/22 21:02 UTC)
予報対象時間: 22日14時 PDT ~ 23日17時 PDT
風向・風速西南西 6m/s
視程10km以上
少しの雲 雲底高度 610m
全天の4割程度の雲 雲底高度 2440m
全天の8割程度の雲 雲底高度 4270m
22日20時 PDT から
風向・風速西 5m/s
視程10km以上
なし
23日1時 PDT から
風向・風速不定 2m/s
視程10km以上
なし
23日10時 PDT から
風向・風速西 4m/s
視程10km以上
なし
23日13時 PDT から
風向・風速西 6m/s
視程10km以上
なし
KLAX 222102Z 2221/2324 25011KT P6SM FEW020 SCT080 BKN140
FM230300 26009KT P6SM SKC
FM230800 VRB03KT P6SM SKC
FM231700 26008KT P6SM SKC
FM232000 26012KT P6SM SKC